VTBS

Suvarnabhumi Airport

Bangkok, Thailand
TAF VTBS 141700Z 1418/1524 03008KT 9999 FEW030
Issued Valid From Valid To
Dec-14 @ 17:00 UTC
(5 hours ago)
Dec-14 @ 18:00 UTC
(4 hours ago)
Dec-16 @ 00:00 UTC
(-1 days ago)
Dec-14 @ 18:00 to Dec-16 @ 00:00
TAF VTBS 141700Z 1418/1524 03008KT 9999 FEW030
Wind Visibility Clouds
30° at 8 knots 10,000+ meters
  • Few at 3,000' AGL
TAF VTBS 141700Z 1418/1524 03008KT 9999 FEW030
Issued Dec-14 @ 17:00 UTC
(5 hours ago)
Valid From Dec-14 @ 18:00 UTC
(4 hours ago)
Valid To Dec-16 @ 00:00 UTC
(-1 days ago)
Dec-14 @ 18:00 - Dec-16 @ 00:00
Wind Visibility
30° at 8 knots 10,000+ meters
Clouds
  • Few at 3,000' AGL